Genco Loire — V7GN8 — position and weather

sailwx.info

Track history (hours):
 
Tides and Currents Weather Stations Pressure Air Temp Water Temp Dewpoint Dewpoint Depression Visibility Wind Speed Wind Dir Waves Ship Positions

Genco Loire

Last reported at 2014-Oct-07 13:23 UTC. Time now 2014-Oct-21 07:13 UTC.
Position N 01°14' E 103°25'.
Warning: this ship's position is 13 days out of date.

Length 190 m; draft 9.9 m.

MMSI: 538002760.

Date/timePositionNaut miles runAvg speedWind from/ knotsBaromVisibWave heightAir tempDewpointWater temp
2014-Oct-07 13:23N 01°14' E 103°25'1112.9
2014-Oct-07 12:33N 01°12' E 103°36'1212.0
2014-Oct-07 11:34N 01°10' E 103°48'1313.1
2014-Oct-07 10:33N 01°16' E 103°59'1 0.9
2014-Oct-07 09:31N 01°17' E 103°60'0 0.1
2014-Oct-07 08:31N 01°17' E 103°60'0 0.1
2014-Oct-07 07:31N 01°17' E 103°60'0 0.0
2014-Oct-07 06:22N 01°17' E 103°60'0 0.1
2014-Oct-07 05:31N 01°17' E 103°60'0 0.1
2014-Oct-07 04:31N 01°17' E 103°60'0 0.0
2014-Oct-07 03:22N 01°17' E 103°60'0 0.1
2014-Oct-07 02:31N 01°17' E 103°59'0 0.0
2014-Oct-07 00:19N 01°17' E 103°59'0 0.0
2014-Oct-06 23:31N 01°17' E 103°59'0 0.1
2014-Oct-06 22:31N 01°17' E 103°60'0 0.1
2014-Oct-06 21:31N 01°17' E 103°60'0 0.1
2014-Oct-06 20:28N 01°17' E 103°60'0 0.0
2014-Oct-06 19:28N 01°17' E 103°60'0 0.0
2014-Oct-06 18:22N 01°17' E 103°60'0 0.0
2014-Oct-06 17:28N 01°17' E 103°60'2 2.2
2014-Oct-06 16:33N 01°16' E 103°58'8 3.7
2014-Oct-06 14:24N 01°16' E 104°06'  
2014-Sep-29 15:33N 30°44' E 122°58'1211.9
2014-Sep-29 14:33N 30°55' E 122°54'3210.4
2014-Sep-29 11:32N 31°06' E 122°19'2814.2
2014-Sep-29 09:32N 31°17' E 121°49'1212.6
2014-Sep-29 08:33N 31°23' E 121°36'9 9.1
2014-Sep-29 07:33N 31°28' E 121°27'1211.5
2014-Sep-29 06:31N 31°36' E 121°17'1513.0
2014-Sep-29 05:21N 31°46' E 121°03'1012.3
2014-Sep-29 04:33N 31°51' E 120°54'1212.2
2014-Sep-29 03:33N 32°00' E 120°44'1313.5
2014-Sep-29 02:33N 32°02' E 120°28'7 7.2
2014-Sep-29 01:33N 31°58' E 120°21'1010.2
2014-Sep-29 00:33N 31°56' E 120°10'1313.4
2014-Sep-28 23:33N 32°03' E 119°56'3 2.5
2014-Sep-28 22:32N 32°05' E 119°56'0 0.1
2014-Sep-28 21:32N 32°05' E 119°56'0 0.0
2014-Sep-28 19:32N 32°05' E 119°56'0 0.0
2014-Sep-28 18:20N 32°05' E 119°56'0 0.0
2014-Sep-28 17:14N 32°05' E 119°56'0 0.0
2014-Sep-28 16:29N 32°05' E 119°56'0 0.0
2014-Sep-28 15:32N 32°05' E 119°56'0 0.0
2014-Sep-28 14:32N 32°05' E 119°56'0 0.0
2014-Sep-28 13:29N 32°05' E 119°56'0 0.1
2014-Sep-28 12:11N 32°05' E 119°56'3 4.2
2014-Sep-28 11:22N 32°09' E 119°54'  
Track history (hours):
 
Tides and Currents Weather Stations Pressure Air Temp Water Temp Dewpoint Dewpoint Depression Visibility Wind Speed Wind Dir Waves Ship Positions

Genco Loire

Last reported at 2014-Oct-07 13:23 UTC. Time now 2014-Oct-21 07:13 UTC.
Position N 01°14' E 103°25'.
Warning: this ship's position is 13 days out of date.

Length 190 m; draft 9.9 m.

MMSI: 538002760.

Date/timePositionNaut miles runAvg speedWind from/ knotsBaromVisibWave heightAir tempDewpointWater temp
2014-Oct-07 13:23N 01°14' E 103°25'1112.9
2014-Oct-07 12:33N 01°12' E 103°36'1212.0
2014-Oct-07 11:34N 01°10' E 103°48'1313.1
2014-Oct-07 10:33N 01°16' E 103°59'1 0.9
2014-Oct-07 09:31N 01°17' E 103°60'0 0.1
2014-Oct-07 08:31N 01°17' E 103°60'0 0.1
2014-Oct-07 07:31N 01°17' E 103°60'0 0.0
2014-Oct-07 06:22N 01°17' E 103°60'0 0.1
2014-Oct-07 05:31N 01°17' E 103°60'0 0.1
2014-Oct-07 04:31N 01°17' E 103°60'0 0.0
2014-Oct-07 03:22N 01°17' E 103°60'0 0.1
2014-Oct-07 02:31N 01°17' E 103°59'0 0.0
2014-Oct-07 00:19N 01°17' E 103°59'0 0.0
2014-Oct-06 23:31N 01°17' E 103°59'0 0.1
2014-Oct-06 22:31N 01°17' E 103°60'0 0.1
2014-Oct-06 21:31N 01°17' E 103°60'0 0.1
2014-Oct-06 20:28N 01°17' E 103°60'0 0.0
2014-Oct-06 19:28N 01°17' E 103°60'0 0.0
2014-Oct-06 18:22N 01°17' E 103°60'0 0.0
2014-Oct-06 17:28N 01°17' E 103°60'2 2.2
2014-Oct-06 16:33N 01°16' E 103°58'8 3.7
2014-Oct-06 14:24N 01°16' E 104°06'  
2014-Sep-29 15:33N 30°44' E 122°58'1211.9
2014-Sep-29 14:33N 30°55' E 122°54'3210.4
2014-Sep-29 11:32N 31°06' E 122°19'2814.2
2014-Sep-29 09:32N 31°17' E 121°49'1212.6
2014-Sep-29 08:33N 31°23' E 121°36'9 9.1
2014-Sep-29 07:33N 31°28' E 121°27'1211.5
2014-Sep-29 06:31N 31°36' E 121°17'1513.0
2014-Sep-29 05:21N 31°46' E 121°03'1012.3
2014-Sep-29 04:33N 31°51' E 120°54'1212.2
2014-Sep-29 03:33N 32°00' E 120°44'1313.5
2014-Sep-29 02:33N 32°02' E 120°28'7 7.2
2014-Sep-29 01:33N 31°58' E 120°21'1010.2
2014-Sep-29 00:33N 31°56' E 120°10'1313.4
2014-Sep-28 23:33N 32°03' E 119°56'3 2.5
2014-Sep-28 22:32N 32°05' E 119°56'0 0.1
2014-Sep-28 21:32N 32°05' E 119°56'0 0.0
2014-Sep-28 19:32N 32°05' E 119°56'0 0.0
2014-Sep-28 18:20N 32°05' E 119°56'0 0.0
2014-Sep-28 17:14N 32°05' E 119°56'0 0.0
2014-Sep-28 16:29N 32°05' E 119°56'0 0.0
2014-Sep-28 15:32N 32°05' E 119°56'0 0.0
2014-Sep-28 14:32N 32°05' E 119°56'0 0.0
2014-Sep-28 13:29N 32°05' E 119°56'0 0.1
2014-Sep-28 12:11N 32°05' E 119°56'3 4.2
2014-Sep-28 11:22N 32°09' E 119°54'  

Dump ship's entire track history